Flight Track Log - Related Links

Times and Time Zones

All times are in EDT time to prevent confusion due to time zone crossing. See the N135TW flight status page for this flight to view local times or setup timezone preferences in your user account.

Time Position Orientation Groundspeed Altitude Reporting Facility
EDT Latitude Longitude Course Direction KTS MPH feet Rate Location/Type
Sat 06:13:43 PM 39.6586 -74.3006 30° Northeast 166 191 9,500  Level New York Center
Sat 06:14:42 PM 39.7139 -74.2575 31° Northeast 195 224 9,500 -50 Level New York Center
Sat 06:15:43 PM 39.7650 -74.2222 28° Northeast 200 230 9,400  Descending New York Center
Sat 06:16:42 PM 39.8100 -74.1839 33° Northeast 200 230 9,500  Climbing New York Center
Sat 06:17:42 PM 39.8547 -74.1536 27° Northeast 200 230 9,400 -50 Descending New York Center
Sat 06:18:43 PM 39.9100 -74.1103 31° Northeast 200 230 9,400  Level New York Center
Sat 06:19:00 PM 39.8124 -74.1800 30° Northeast  Level Estimated
Sat 06:19:43 PM 39.9589 -74.0747 29° Northeast 200 230 9,400  Level New York Center
Sat 06:20:44 PM 40.0058 -74.0364 32° Northeast 200 230 9,400  Level New York Center
Sat 06:21:45 PM 40.0483 -74.0058 29° Northeast 200 230 9,400  Level New York Center
Sat 06:22:42 PM 40.0975 -73.9700 29° Northeast 195 224 9,400  Level New York Center
Sat 06:23:44 PM 40.1486 -73.9292 31° Northeast 195 224 9,400  Level New York Center
Sat 06:24:44 PM 40.1975 -73.8933 29° Northeast 190 219 9,400  Level New York Center
Sat 06:25:42 PM 40.2442 -73.8544 32° Northeast 195 224 9,400  Level New York Center
Sat 06:26:43 PM 40.2933 -73.8158 31° Northeast 195 224 9,400  Level New York Center
Sat 06:27:44 PM 40.3400 -73.7772 32° Northeast 195 224 9,400  Level New York Center
Sat 06:28:44 PM 40.3911 -73.7386 30° Northeast 195 224 9,400  Level New York Center
Sat 06:29:42 PM 40.4378 -73.7025 30° Northeast 195 224 9,400  Level New York Center
Sat 06:30:42 PM 40.4844 -73.6661 31° Northeast 195 224 9,400  Level New York Center
Sat 06:31:43 PM 40.5272 -73.6297 33° Northeast 190 219 9,400  Level New York Center
Sat 06:32:43 PM 40.5758 -73.5964 28° Northeast 190 219 9,400 -303 Level New York Center
Sat 06:33:42 PM 40.6311 -73.5519 31° Northeast 202 232 8,800 -650 Descending New York Center
Sat 06:34:43 PM 40.6797 -73.5158 29° Northeast 212 244 8,100 -881 Descending New York Center
Sat 06:36:05 PM 40.7500 -73.4500 35° Northeast 218 251 6,700 -887 Descending New York TRACON
Sat 06:37:05 PM 40.8000 -73.4167 27° Northeast 208 239 6,000 -694 Descending New York TRACON
Sat 06:38:06 PM 40.8500 -73.3667 37° Northeast 198 228 5,300 -900 Descending New York TRACON
Sat 06:39:05 PM 40.9000 -73.3333 27° Northeast 199 229 4,200 -958 Descending New York TRACON
Sat 06:40:05 PM 40.9500 -73.3000 27° Northeast 195 224 3,400 -619 Descending New York TRACON
Sat 06:41:11 PM 41.0000 -73.2667 27° Northeast 179 206 2,900 -455 Descending New York TRACON

Login

Don't have an account? Register now (free) for customized features, flight alerts, and more!